Time;durP1;ratioP1;P1;durP2;ratioP2;P2;SDS_P1;SDS_P2;PMS_P1;PMS_P2;Temp;Humidity;BMP_temperature;BMP_pressure;BME280_temperature;BME280_humidity;BME280_pressure;Samples;Min_cycle;Max_cycle;Signal;HPM_P1;HPM_P2
2021/08/07 00:00:51;;;;;;;1.20;1.10;;;17.20;99.90;;;;;;5013296;28;20181;-71
2021/08/07 00:03:18;;;;;;;2.00;1.67;;;17.20;99.90;;;;;;5013654;28;20228;-71
2021/08/07 00:05:44;;;;;;;4.30;1.40;;;17.20;99.90;;;;;;5014278;28;20157;-71
2021/08/07 00:08:10;;;;;;;1.80;1.40;;;17.20;99.90;;;;;;5013983;28;20409;-71
2021/08/07 00:10:35;;;;;;;1.20;1.10;;;17.20;99.90;;;;;;5013731;28;20161;-71
2021/08/07 00:13:01;;;;;;;1.50;1.23;;;17.10;99.90;;;;;;5013622;28;20166;-71
2021/08/07 00:15:28;;;;;;;1.73;1.27;;;17.10;99.90;;;;;;5013445;28;20236;-71
2021/08/07 00:17:53;;;;;;;2.60;2.10;;;17.10;99.90;;;;;;5013441;28;20177;-71
2021/08/07 00:20:19;;;;;;;1.10;1.00;;;17.10;99.90;;;;;;5013476;28;20416;-71
2021/08/07 00:22:45;;;;;;;1.43;1.33;;;17.10;99.90;;;;;;5013354;28;20530;-71
2021/08/07 00:25:10;;;;;;;1.70;1.60;;;17.10;99.90;;;;;;4995120;28;20178;-71
2021/08/07 00:27:36;;;;;;;1.40;1.10;;;17.10;99.90;;;;;;4994036;28;20162;-71
2021/08/07 00:30:04;;;;;;;2.10;1.50;;;17.00;99.90;;;;;;4993706;28;20178;-71
2021/08/07 00:32:29;;;;;;;3.40;1.37;;;17.00;99.90;;;;;;4993810;28;20159;-71
2021/08/07 00:34:55;;;;;;;2.10;1.23;;;17.00;99.90;;;;;;5003918;28;20543;-71
2021/08/07 00:37:20;;;;;;;2.00;1.87;;;16.90;99.90;;;;;;5013199;28;20512;-71
2021/08/07 00:39:46;;;;;;;1.53;1.43;;;16.90;99.90;;;;;;5013303;28;20158;-71
2021/08/07 00:42:12;;;;;;;2.03;1.77;;;16.80;99.90;;;;;;5013246;28;20236;-71
2021/08/07 00:44:38;;;;;;;1.77;1.67;;;16.80;99.90;;;;;;5013099;28;20185;-71
2021/08/07 00:47:04;;;;;;;1.50;1.40;;;16.70;99.90;;;;;;5013568;28;20166;-71
2021/08/07 00:49:29;;;;;;;1.73;1.50;;;16.70;99.90;;;;;;5013264;28;20404;-71
2021/08/07 00:51:55;;;;;;;2.97;1.40;;;16.70;99.90;;;;;;5012857;28;20499;-71
2021/08/07 00:54:20;;;;;;;1.50;1.40;;;16.60;99.90;;;;;;5012720;28;20177;-71
2021/08/07 00:56:46;;;;;;;1.57;1.40;;;16.60;99.90;;;;;;5012983;28;20162;-71
2021/08/07 00:59:12;;;;;;;2.00;1.80;;;16.60;99.90;;;;;;5012870;28;20247;-71
2021/08/07 01:01:44;;;;;;;2.47;1.83;;;16.60;99.90;;;;;;4996914;28;20695;-71
2021/08/07 01:04:21;;;;;;;1.43;1.20;;;16.60;99.90;;;;;;4993425;28;20150;-71
2021/08/07 01:06:54;;;;;;;1.60;1.50;;;16.50;99.90;;;;;;4993310;28;20484;-71
2021/08/07 01:14:48;;;;;;;1.33;1.10;;;16.50;99.90;;;;;;5069861;28;20527;-71
2021/08/07 01:17:16;;;;;;;1.67;1.57;;;16.50;99.90;;;;;;5070184;28;20816;-71
2021/08/07 01:19:53;;;;;;;1.70;1.40;;;16.50;99.90;;;;;;5069950;28;20489;-71
2021/08/07 01:22:24;;;;;;;3.67;2.37;;;16.50;99.90;;;;;;5069900;28;20476;-71
2021/08/07 01:24:58;;;;;;;13.77;2.50;;;16.40;99.90;;;;;;5054434;28;20402;-71
2021/08/07 01:27:30;;;;;;;2.33;1.53;;;16.40;99.90;;;;;;5050062;28;20410;-71
2021/08/07 01:29:57;;;;;;;2.23;2.03;;;16.40;99.90;;;;;;5049626;28;20481;-71
2021/08/07 01:32:27;;;;;;;2.03;1.50;;;16.40;99.90;;;;;;5051230;28;20441;-71
2021/08/07 01:34:54;;;;;;;2.20;1.70;;;16.40;99.90;;;;;;5069525;28;20808;-71
2021/08/07 01:37:22;;;;;;;1.60;1.50;;;16.40;99.90;;;;;;5069696;28;20744;-71
2021/08/07 01:39:50;;;;;;;2.50;1.53;;;16.40;99.90;;;;;;5069379;28;20394;-71
2021/08/07 01:42:16;;;;;;;1.40;1.30;;;16.40;99.90;;;;;;5068288;28;20893;-71
2021/08/07 01:44:41;;;;;;;2.50;1.83;;;16.40;99.90;;;;;;5068539;28;20547;-71
2021/08/07 01:47:13;;;;;;;1.73;1.63;;;16.40;99.90;;;;;;5069484;28;20500;-71
2021/08/07 01:49:45;;;;;;;1.67;1.57;;;16.40;99.90;;;;;;5069217;28;20167;-71
2021/08/07 01:52:18;;;;;;;1.90;1.57;;;16.40;99.90;;;;;;5069182;28;20444;-71
2021/08/07 01:54:49;;;;;;;2.97;1.40;;;16.40;99.90;;;;;;5069106;28;20405;-71
2021/08/07 01:57:21;;;;;;;3.73;1.90;;;16.50;99.90;;;;;;5069021;28;20413;-71
2021/08/07 01:59:49;;;;;;;2.90;1.30;;;16.40;99.90;;;;;;5067166;28;20433;-71
2021/08/07 02:02:17;;;;;;;3.13;1.37;;;16.40;99.90;;;;;;5049826;28;20893;-71
2021/08/07 02:04:42;;;;;;;4.33;1.40;;;16.40;99.90;;;;;;5049224;28;20468;-71
2021/08/07 02:07:09;;;;;;;1.20;1.10;;;16.40;99.90;;;;;;5048944;28;20391;-71
2021/08/07 02:09:36;;;;;;;1.30;1.20;;;16.40;99.90;;;;;;5048950;28;20215;-71
2021/08/07 02:12:02;;;;;;;2.40;1.67;;;16.40;99.90;;;;;;5048793;28;20390;-71
2021/08/07 02:14:29;;;;;;;2.93;1.60;;;16.50;99.90;;;;;;5048821;28;20474;-71
2021/08/07 02:16:55;;;;;;;2.37;1.07;;;16.50;99.90;;;;;;5049623;28;20904;-71
2021/08/07 02:19:22;;;;;;;1.40;1.30;;;16.50;99.90;;;;;;5049226;28;20415;-71
2021/08/07 02:21:48;;;;;;;3.23;2.00;;;16.50;99.90;;;;;;5048560;28;20785;-71
2021/08/07 02:24:14;;;;;;;1.53;1.43;;;16.50;99.90;;;;;;5045740;28;20830;-71
2021/08/07 02:26:42;;;;;;;3.07;1.53;;;16.50;99.90;;;;;;5035262;28;20391;-71
2021/08/07 02:29:08;;;;;;;1.67;1.30;;;16.50;99.90;;;;;;5035606;28;20399;-71
2021/08/07 02:31:34;;;;;;;1.40;1.30;;;16.50;99.90;;;;;;5035302;28;20392;-71
2021/08/07 02:34:01;;;;;;;1.77;1.60;;;16.50;99.90;;;;;;5035431;28;20459;-71
2021/08/07 02:36:27;;;;;;;3.00;1.60;;;16.50;99.90;;;;;;5035829;28;20411;-71
2021/08/07 02:38:52;;;;;;;1.50;1.40;;;16.50;99.90;;;;;;5035082;28;20398;-71
2021/08/07 02:41:19;;;;;;;2.40;1.00;;;16.40;99.90;;;;;;5035105;28;20164;-71
2021/08/07 02:43:46;;;;;;;5.30;1.43;;;16.40;99.90;;;;;;5035230;28;20160;-71
2021/08/07 02:46:12;;;;;;;1.70;1.57;;;16.40;99.90;;;;;;5034914;28;20411;-71
2021/08/07 02:48:38;;;;;;;1.83;1.33;;;16.40;99.90;;;;;;5034962;28;20388;-71
2021/08/07 02:51:04;;;;;;;1.93;1.60;;;16.50;99.90;;;;;;5035369;28;20173;-71
2021/08/07 02:53:30;;;;;;;1.87;1.30;;;16.50;99.90;;;;;;5035248;28;20452;-72
2021/08/07 02:55:55;;;;;;;4.00;1.73;;;16.40;99.90;;;;;;5035975;28;20392;-71
2021/08/07 02:58:22;;;;;;;1.83;1.43;;;16.40;99.90;;;;;;5035313;28;20491;-71
2021/08/07 03:00:48;;;;;;;2.90;1.30;;;16.40;99.90;;;;;;5035548;28;20257;-71
2021/08/07 03:03:14;;;;;;;1.70;1.50;;;16.40;99.90;;;;;;5034484;28;20956;-71
2021/08/07 03:05:42;;;;;;;1.47;1.27;;;16.30;99.90;;;;;;5034581;28;20398;-72
2021/08/07 03:08:08;;;;;;;1.33;1.20;;;16.30;99.90;;;;;;5035044;28;20168;-72
2021/08/07 03:10:33;;;;;;;1.37;1.27;;;16.30;99.90;;;;;;5035211;28;20420;-72
2021/08/07 03:12:59;;;;;;;2.17;1.67;;;16.30;99.90;;;;;;5034301;28;20236;-71
2021/08/07 03:15:26;;;;;;;2.17;1.60;;;16.30;99.90;;;;;;5034839;28;20148;-71
2021/08/07 03:17:52;;;;;;;1.43;1.33;;;16.30;99.90;;;;;;5034423;28;20400;-71
2021/08/07 03:20:18;;;;;;;2.30;1.57;;;16.30;99.90;;;;;;5034332;28;20396;-71
2021/08/07 03:22:43;;;;;;;1.70;1.30;;;16.30;99.90;;;;;;5034244;28;20869;-72
2021/08/07 03:25:10;;;;;;;1.60;1.40;;;16.30;99.90;;;;;;5051762;28;20418;-71
2021/08/07 03:27:36;;;;;;;5.07;2.23;;;16.20;99.90;;;;;;5053549;28;20187;-71
2021/08/07 03:30:03;;;;;;;1.73;1.33;;;16.10;99.90;;;;;;5054324;28;20776;-71
2021/08/07 03:32:28;;;;;;;2.93;1.63;;;16.20;99.90;;;;;;5051484;28;20170;-71
2021/08/07 03:34:54;;;;;;;1.73;1.43;;;16.10;99.90;;;;;;5034068;28;20396;-71
2021/08/07 03:37:19;;;;;;;3.90;2.13;;;16.10;99.90;;;;;;5032955;28;20177;-71
2021/08/07 03:39:45;;;;;;;2.43;2.07;;;16.10;99.90;;;;;;5034030;28;20157;-72
2021/08/07 03:42:11;;;;;;;7.80;2.20;;;16.00;99.90;;;;;;5034454;28;20171;-71
2021/08/07 03:44:36;;;;;;;1.93;1.57;;;16.00;99.90;;;;;;5034845;28;20183;-71
2021/08/07 03:47:02;;;;;;;1.97;1.60;;;16.00;99.90;;;;;;5033843;28;20157;-71
2021/08/07 03:49:27;;;;;;;1.80;1.50;;;16.00;99.90;;;;;;5033747;28;20161;-71
2021/08/07 03:51:53;;;;;;;1.60;1.50;;;16.00;99.90;;;;;;5033704;28;20275;-71
2021/08/07 03:54:18;;;;;;;3.33;1.53;;;16.00;99.90;;;;;;5033725;28;20196;-71
2021/08/07 03:56:44;;;;;;;2.60;2.13;;;16.00;99.90;;;;;;5033689;28;20149;-71
2021/08/07 03:59:09;;;;;;;1.87;1.50;;;16.00;99.90;;;;;;5034732;28;20211;-71
2021/08/07 04:01:35;;;;;;;1.93;1.83;;;16.00;99.90;;;;;;5033888;28;20180;-73
2021/08/07 04:04:01;;;;;;;1.70;1.60;;;16.00;99.90;;;;;;5045720;28;20259;-72
2021/08/07 04:06:27;;;;;;;1.27;1.17;;;16.00;99.90;;;;;;5053607;28;20162;-71
2021/08/07 04:08:52;;;;;;;1.70;1.47;;;16.00;99.90;;;;;;5053335;28;20167;-71
2021/08/07 04:11:18;;;;;;;1.93;1.67;;;16.00;99.90;;;;;;5053237;28;20637;-71
2021/08/07 04:13:43;;;;;;;3.70;1.93;;;16.00;99.90;;;;;;5053689;28;20196;-71
2021/08/07 04:16:09;;;;;;;4.60;1.40;;;16.00;99.90;;;;;;5052482;28;20183;-71
2021/08/07 04:18:34;;;;;;;6.03;1.60;;;16.00;99.90;;;;;;5052568;28;20172;-71
2021/08/07 04:21:00;;;;;;;2.10;1.60;;;16.00;99.90;;;;;;5053089;28;20168;-71
2021/08/07 04:23:26;;;;;;;2.57;1.77;;;16.00;99.90;;;;;;5053286;28;20165;-71
2021/08/07 04:25:51;;;;;;;1.67;1.37;;;16.00;99.90;;;;;;5053447;28;20531;-71
2021/08/07 04:28:17;;;;;;;3.60;2.00;;;16.00;99.90;;;;;;5053438;28;20248;-71
2021/08/07 04:30:44;;;;;;;2.17;1.23;;;16.00;99.90;;;;;;5053203;28;20164;-71
2021/08/07 04:33:09;;;;;;;2.50;1.30;;;16.00;99.90;;;;;;5052053;28;20989;-71
2021/08/07 04:35:36;;;;;;;1.37;0.90;;;16.00;99.90;;;;;;5052120;28;20415;-71
2021/08/07 04:38:02;;;;;;;4.20;1.90;;;16.00;99.90;;;;;;5052932;28;20609;-71
2021/08/07 04:40:29;;;;;;;2.50;1.40;;;16.00;99.90;;;;;;5052869;28;20452;-71
2021/08/07 04:42:55;;;;;;;2.43;1.40;;;16.00;99.90;;;;;;5053087;28;20602;-71
2021/08/07 04:45:21;;;;;;;1.30;1.20;;;16.10;99.90;;;;;;5052779;28;20398;-72
2021/08/07 04:47:59;;;;;;;1.77;1.17;;;16.10;99.90;;;;;;5052929;28;20156;-71
2021/08/07 04:50:27;;;;;;;1.80;1.70;;;16.10;99.90;;;;;;5051914;28;20422;-71
2021/08/07 04:52:54;;;;;;;1.47;1.27;;;16.10;99.90;;;;;;5051653;28;20970;-71
2021/08/07 04:55:19;;;;;;;1.20;1.10;;;16.10;99.90;;;;;;5053287;28;20399;-72
2021/08/07 04:57:46;;;;;;;2.90;1.57;;;16.10;99.90;;;;;;5052923;28;20383;-72
2021/08/07 05:00:12;;;;;;;2.57;1.50;;;16.20;99.90;;;;;;5052474;28;20602;-71
2021/08/07 05:02:37;;;;;;;0.87;0.87;;;16.20;99.90;;;;;;5052463;28;20423;-71
2021/08/07 05:05:03;;;;;;;1.67;1.10;;;16.20;99.90;;;;;;5052720;28;20911;-71
2021/08/07 05:07:30;;;;;;;1.27;1.17;;;16.30;99.90;;;;;;5051608;28;20176;-71
2021/08/07 05:09:56;;;;;;;5.07;1.30;;;16.30;99.90;;;;;;5052136;28;20406;-72
2021/08/07 05:12:23;;;;;;;1.77;1.20;;;16.30;99.90;;;;;;5052613;28;20388;-72
2021/08/07 05:14:48;;;;;;;2.07;1.30;;;16.40;99.90;;;;;;5052176;28;20442;-72
2021/08/07 05:17:14;;;;;;;1.37;0.90;;;16.40;99.90;;;;;;5052480;28;20744;-71
2021/08/07 05:19:40;;;;;;;2.03;1.07;;;16.40;99.90;;;;;;5052392;28;20206;-71
2021/08/07 05:22:05;;;;;;;1.60;1.20;;;16.40;99.90;;;;;;5052492;28;20160;-71
2021/08/07 05:24:31;;;;;;;2.00;1.00;;;16.50;99.90;;;;;;5052179;28;20194;-72
2021/08/07 05:26:56;;;;;;;1.13;1.00;;;16.50;99.90;;;;;;5051902;28;20656;-71
2021/08/07 05:29:22;;;;;;;1.30;1.20;;;16.50;99.90;;;;;;5052438;28;20152;-71
2021/08/07 05:31:47;;;;;;;0.80;0.80;;;16.50;99.90;;;;;;5052447;28;20156;-71
2021/08/07 05:34:13;;;;;;;2.07;1.20;;;16.50;99.90;;;;;;5050005;28;20185;-71
2021/08/07 05:36:38;;;;;;;0.93;0.93;;;16.50;99.90;;;;;;5032414;28;20236;-71
2021/08/07 05:39:04;;;;;;;1.20;1.10;;;16.50;99.90;;;;;;5033147;28;20156;-72
2021/08/07 05:41:29;;;;;;;1.53;1.07;;;16.50;99.90;;;;;;5033035;28;20646;-72
2021/08/07 05:43:55;;;;;;;1.07;0.97;;;16.50;99.90;;;;;;5032863;28;20192;-71
2021/08/07 05:46:21;;;;;;;2.90;1.50;;;16.60;99.90;;;;;;5032431;28;20196;-71
2021/08/07 05:48:46;;;;;;;1.63;1.10;;;16.60;99.90;;;;;;5032319;28;20165;-71
2021/08/07 05:51:12;;;;;;;1.10;1.00;;;16.70;99.90;;;;;;5032223;28;20236;-71
2021/08/07 05:53:37;;;;;;;1.17;1.07;;;16.70;99.90;;;;;;5033055;28;20223;-72
2021/08/07 05:56:03;;;;;;;1.27;0.97;;;16.80;99.90;;;;;;5032526;28;20561;-71
2021/08/07 05:58:31;;;;;;;2.13;1.57;;;16.90;99.90;;;;;;5046254;28;20200;-71
2021/08/07 06:00:57;;;;;;;4.67;1.33;;;17.00;99.90;;;;;;5053973;28;20173;-71
2021/08/07 06:03:22;;;;;;;1.90;1.43;;;17.00;99.90;;;;;;5055874;28;20398;-71
2021/08/07 06:05:48;;;;;;;1.80;1.40;;;17.10;99.90;;;;;;5041332;28;20189;-71
2021/08/07 06:08:14;;;;;;;1.00;0.90;;;17.10;99.90;;;;;;5036752;28;20677;-72
2021/08/07 06:10:39;;;;;;;1.03;0.87;;;17.20;99.90;;;;;;5035976;28;20217;-71
2021/08/07 06:13:05;;;;;;;2.70;1.20;;;17.30;99.90;;;;;;5035859;28;20456;-71
2021/08/07 06:15:31;;;;;;;2.30;0.87;;;17.40;99.90;;;;;;5036185;28;20176;-72
2021/08/07 06:17:56;;;;;;;1.00;0.90;;;17.50;99.90;;;;;;5036261;28;20185;-71
2021/08/07 06:20:23;;;;;;;1.63;1.33;;;17.50;99.90;;;;;;5035601;28;20153;-71
2021/08/07 06:22:48;;;;;;;2.00;1.90;;;17.60;99.90;;;;;;5036273;28;20196;-72
2021/08/07 06:25:14;;;;;;;1.53;1.17;;;17.60;99.90;;;;;;5035786;28;20899;-72
2021/08/07 06:27:40;;;;;;;2.87;1.10;;;17.60;99.90;;;;;;5035669;28;20207;-71
2021/08/07 06:30:06;;;;;;;4.87;1.00;;;17.60;99.90;;;;;;5035277;28;20169;-72
2021/08/07 06:32:32;;;;;;;1.90;1.13;;;17.70;99.90;;;;;;5035812;28;20544;-72
2021/08/07 06:34:57;;;;;;;2.80;1.13;;;17.70;99.90;;;;;;5035914;28;20466;-71
2021/08/07 06:37:23;;;;;;;2.67;1.73;;;17.80;99.90;;;;;;5036010;28;20149;-72
2021/08/07 06:39:48;;;;;;;3.73;1.40;;;17.80;99.90;;;;;;5035369;28;20180;-71
2021/08/07 06:42:14;;;;;;;1.47;1.30;;;17.90;99.90;;;;;;5035096;28;20161;-72
2021/08/07 06:44:39;;;;;;;2.97;1.33;;;17.90;99.90;;;;;;5035016;28;20163;-72
2021/08/07 06:47:05;;;;;;;1.73;1.43;;;18.00;99.90;;;;;;5035114;28;20161;-71
2021/08/07 06:49:30;;;;;;;2.57;1.30;;;18.00;99.90;;;;;;5035445;28;20352;-71
2021/08/07 06:51:56;;;;;;;1.30;1.20;;;18.00;99.90;;;;;;5036169;28;20172;-72
2021/08/07 06:54:21;;;;;;;1.63;1.07;;;17.90;99.90;;;;;;5034943;28;20328;-71
2021/08/07 06:56:48;;;;;;;2.90;1.00;;;17.90;99.90;;;;;;5035111;28;20195;-71
2021/08/07 06:59:15;;;;;;;1.57;1.03;;;18.00;99.90;;;;;;5034730;28;20189;-72
2021/08/07 07:01:40;;;;;;;1.67;1.00;;;18.00;99.90;;;;;;5033431;28;20422;-71
2021/08/07 07:04:06;;;;;;;1.40;1.00;;;18.00;99.90;;;;;;5034415;28;20427;-72
2021/08/07 07:06:31;;;;;;;1.80;1.47;;;17.90;99.90;;;;;;5054299;28;20710;-71
2021/08/07 07:08:57;;;;;;;3.10;1.57;;;17.80;99.90;;;;;;5053893;28;20264;-71
2021/08/07 07:11:22;;;;;;;3.97;1.30;;;17.80;99.90;;;;;;5054438;28;20242;-71
2021/08/07 07:13:48;;;;;;;1.73;1.10;;;17.80;99.90;;;;;;5054291;28;20546;-72
2021/08/07 07:16:14;;;;;;;1.57;1.20;;;17.70;99.90;;;;;;5054243;28;20160;-71
2021/08/07 07:18:40;;;;;;;1.00;0.90;;;17.60;99.90;;;;;;5054393;28;20156;-71
2021/08/07 07:21:06;;;;;;;2.80;1.50;;;17.50;99.90;;;;;;5055825;28;20421;-72
2021/08/07 07:23:32;;;;;;;1.23;1.00;;;17.50;99.90;;;;;;5053641;28;20661;-72
2021/08/07 07:25:57;;;;;;;1.30;1.10;;;17.50;99.90;;;;;;5053336;28;20446;-72
2021/08/07 07:28:23;;;;;;;1.50;1.40;;;17.60;99.90;;;;;;5054184;28;20193;-72
2021/08/07 07:30:49;;;;;;;2.23;1.00;;;17.60;99.90;;;;;;5054011;28;20598;-71
2021/08/07 07:33:14;;;;;;;2.50;1.30;;;17.70;99.90;;;;;;5052797;28;20477;-71
2021/08/07 07:35:41;;;;;;;2.47;1.20;;;17.90;99.90;;;;;;5055828;28;20164;-71
2021/08/07 07:38:07;;;;;;;3.83;2.00;;;18.00;99.90;;;;;;5054177;28;20174;-71
2021/08/07 07:40:34;;;;;;;2.80;1.50;;;18.30;99.90;;;;;;5053252;28;20896;-72
2021/08/07 07:42:59;;;;;;;2.00;1.10;;;18.50;99.90;;;;;;5053092;28;20500;-72
2021/08/07 07:45:25;;;;;;;2.50;1.20;;;18.90;99.90;;;;;;5054129;28;20547;-72
2021/08/07 07:47:50;;;;;;;1.13;0.80;;;19.20;99.90;;;;;;5054204;28;20171;-72
2021/08/07 07:50:16;;;;;;;2.60;1.30;;;19.80;99.90;;;;;;5055801;28;20161;-72
2021/08/07 07:52:44;;;;;;;5.23;1.00;;;20.20;99.90;;;;;;5053681;28;20163;-72
2021/08/07 07:55:10;;;;;;;4.13;1.17;;;20.40;99.90;;;;;;5053686;28;20156;-72
2021/08/07 07:57:36;;;;;;;2.40;1.10;;;20.30;99.90;;;;;;5052905;28;20441;-72
2021/08/07 08:00:03;;;;;;;1.30;1.00;;;20.50;99.90;;;;;;5052742;28;20192;-72
2021/08/07 08:02:29;;;;;;;1.23;1.13;;;20.60;99.90;;;;;;5053701;28;20478;-72
2021/08/07 08:04:54;;;;;;;1.03;0.90;;;21.30;99.90;;;;;;5053772;28;20940;-72
2021/08/07 08:07:20;;;;;;;0.63;0.63;;;22.40;99.90;;;;;;5053680;28;20513;-72
2021/08/07 08:09:45;;;;;;;3.73;1.67;;;23.20;99.90;;;;;;5053260;28;20245;-72
2021/08/07 08:12:11;;;;;;;1.17;0.73;;;23.00;99.90;;;;;;5053216;28;20629;-72
2021/08/07 08:14:36;;;;;;;0.93;0.83;;;23.20;99.90;;;;;;5052403;28;20569;-71
2021/08/07 08:17:02;;;;;;;3.07;1.37;;;23.10;99.90;;;;;;5053399;28;20176;-72
2021/08/07 08:19:28;;;;;;;1.13;1.00;;;23.00;99.90;;;;;;5054217;28;20163;-72
2021/08/07 08:21:53;;;;;;;3.40;1.30;;;22.70;99.90;;;;;;5052948;28;20568;-72
2021/08/07 08:24:19;;;;;;;1.03;0.93;;;22.50;99.90;;;;;;5052847;28;20648;-72
2021/08/07 08:26:44;;;;;;;1.27;1.10;;;22.40;99.90;;;;;;5053299;28;20533;-72
2021/08/07 08:29:10;;;;;;;1.10;0.93;;;22.30;99.90;;;;;;5053348;28;20171;-71
2021/08/07 08:31:36;;;;;;;1.00;0.80;;;22.30;99.90;;;;;;5052066;28;20306;-71
2021/08/07 08:34:01;;;;;;;2.13;0.97;;;22.60;99.90;;;;;;5052527;28;20560;-72
2021/08/07 08:36:27;;;;;;;2.27;0.90;;;23.00;99.90;;;;;;5053032;28;20172;-72
2021/08/07 08:38:52;;;;;;;1.40;0.90;;;23.70;99.90;;;;;;5052998;28;20184;-72
2021/08/07 08:41:18;;;;;;;1.63;0.73;;;25.30;99.90;;;;;;5052920;28;20509;-72
2021/08/07 08:43:44;;;;;;;1.53;0.80;;;26.40;99.90;;;;;;5053365;28;20542;-70
2021/08/07 08:46:10;;;;;;;1.00;0.90;;;26.80;99.90;;;;;;5053695;28;20251;-70
2021/08/07 08:48:37;;;;;;;1.67;1.00;;;27.20;98.60;;;;;;5038786;28;20255;-71
2021/08/07 08:51:08;;;;;;;1.10;1.00;;;28.50;96.10;;;;;;5033539;28;20434;-70
2021/08/07 08:53:37;;;;;;;2.40;0.70;;;29.20;92.00;;;;;;5032717;28;20447;-71
2021/08/07 08:56:03;;;;;;;1.07;0.80;;;29.20;90.20;;;;;;5032737;28;20399;-71
2021/08/07 08:58:32;;;;;;;1.47;1.00;;;29.80;90.80;;;;;;5035839;28;20420;-71
2021/08/07 09:00:58;;;;;;;1.60;1.07;;;30.20;90.00;;;;;;5033522;28;20176;-71
2021/08/07 09:03:24;;;;;;;4.47;1.50;;;29.90;86.50;;;;;;5031420;28;20760;-71
2021/08/07 09:05:49;;;;;;;1.40;1.03;;;29.40;85.90;;;;;;5033085;28;20181;-71
2021/08/07 09:08:16;;;;;;;0.60;0.53;;;28.80;85.70;;;;;;5033274;28;20184;-71
2021/08/07 09:10:41;;;;;;;1.80;0.93;;;28.50;88.90;;;;;;5032723;28;20160;-71
2021/08/07 09:13:18;;;;;;;2.40;1.37;;;28.70;89.20;;;;;;5033885;28;20510;-71
2021/08/07 09:15:43;;;;;;;1.67;0.80;;;29.40;84.80;;;;;;5033274;28;20160;-71
2021/08/07 09:20:49;;;;;;;2.10;1.00;;;29.50;84.30;;;;;;5069614;28;20508;-72
2021/08/07 09:23:27;;;;;;;2.30;1.00;;;30.20;85.20;;;;;;5033383;28;20406;-72
2021/08/07 09:25:52;;;;;;;1.53;1.10;;;30.60;79.30;;;;;;5049951;28;20418;-72
2021/08/07 09:28:18;;;;;;;3.50;1.17;;;30.40;77.00;;;;;;5050944;28;20400;-72
2021/08/07 09:30:44;;;;;;;1.13;0.70;;;29.80;78.10;;;;;;5050510;28;20251;-72
2021/08/07 09:33:19;;;;;;;2.50;1.00;;;29.10;81.70;;;;;;5048785;28;20164;-72
2021/08/07 09:35:45;;;;;;;2.53;1.00;;;28.30;82.40;;;;;;5043177;28;20422;-72
2021/08/07 09:38:30;;;;;;;4.40;1.30;;;27.50;84.50;;;;;;5034357;28;20440;-72
2021/08/07 09:40:59;;;;;;;2.10;1.00;;;26.50;87.30;;;;;;5050395;28;20426;-72
2021/08/07 09:46:06;;;;;;;1.30;0.80;;;25.70;89.30;;;;;;5071259;28;20512;-72
2021/08/07 09:48:51;;;;;;;1.53;1.20;;;24.70;92.80;;;;;;5070041;28;20390;-73
2021/08/07 09:54:16;;;;;;;3.90;2.77;;;24.60;94.40;;;;;;5069979;28;20609;-73
2021/08/07 09:59:23;;;;;;;1.30;1.20;;;24.50;94.50;;;;;;5069393;28;20520;-73
2021/08/07 10:01:50;;;;;;;1.97;0.73;;;24.60;95.60;;;;;;5069878;28;20402;-74
2021/08/07 10:04:20;;;;;;;2.93;1.10;;;24.40;94.10;;;;;;5060183;28;20407;-74
2021/08/07 10:06:46;;;;;;;2.80;1.10;;;24.20;94.40;;;;;;5030723;28;20420;-74
2021/08/07 10:09:13;;;;;;;1.07;0.97;;;23.80;94.60;;;;;;5029851;28;20400;-74
2021/08/07 10:11:58;;;;;;;6.93;1.37;;;23.80;95.90;;;;;;5029892;28;20396;-74
2021/08/07 10:14:24;;;;;;;2.40;0.87;;;23.80;96.00;;;;;;5034282;28;20418;-74
2021/08/07 10:16:50;;;;;;;1.33;1.13;;;23.90;96.10;;;;;;5049596;28;20474;-73
2021/08/07 10:19:15;;;;;;;1.13;0.77;;;23.90;95.40;;;;;;5049695;28;20719;-74
2021/08/07 10:21:44;;;;;;;3.57;1.80;;;23.60;95.10;;;;;;5049880;28;20252;-74
2021/08/07 10:24:11;;;;;;;1.80;1.07;;;23.30;95.30;;;;;;5049663;28;20156;-74
2021/08/07 10:26:37;;;;;;;7.23;1.60;;;23.40;97.70;;;;;;5049469;28;20481;-73
2021/08/07 10:29:04;;;;;;;2.50;1.20;;;23.40;98.90;;;;;;5050004;28;20994;-73
2021/08/07 10:31:33;;;;;;;1.23;0.93;;;23.50;98.10;;;;;;5049958;28;20461;-73
2021/08/07 10:34:04;;;;;;;2.00;1.40;;;23.60;98.40;;;;;;5049671;28;20472;-74
2021/08/07 10:36:30;;;;;;;2.17;1.17;;;23.70;98.10;;;;;;5037386;28;20427;-74
2021/08/07 10:38:56;;;;;;;1.93;1.20;;;23.70;99.10;;;;;;5029061;28;20824;-74
2021/08/07 10:41:26;;;;;;;1.90;1.20;;;23.90;98.10;;;;;;5029192;28;20420;-74
2021/08/07 10:43:53;;;;;;;2.13;0.93;;;23.90;97.30;;;;;;5029260;28;20494;-74
2021/08/07 10:46:19;;;;;;;1.97;1.83;;;24.00;98.50;;;;;;5035035;28;20912;-74
2021/08/07 10:48:47;;;;;;;1.23;0.80;;;24.00;96.30;;;;;;5050201;28;20501;-74
2021/08/07 10:51:31;;;;;;;1.70;0.90;;;24.00;99.90;;;;;;5049027;28;20731;-74
2021/08/07 10:54:01;;;;;;;2.97;1.40;;;23.90;96.50;;;;;;5048956;28;20422;-74
2021/08/07 11:01:50;;;;;;;2.90;1.23;;;23.80;98.60;;;;;;5106008;27;20616;-74
2021/08/07 11:07:00;;;;;;;2.50;0.90;;;23.60;99.90;;;;;;5053457;28;20650;-73
2021/08/07 11:09:29;;;;;;;6.23;1.37;;;23.60;99.00;;;;;;5049942;28;20801;-73
2021/08/07 11:12:16;;;;;;;4.50;1.17;;;23.50;95.70;;;;;;5049935;28;20390;-73
2021/08/07 11:14:51;;;;;;;2.40;1.00;;;23.50;96.10;;;;;;5048994;28;20441;-73
2021/08/07 11:20:00;;;;;;;3.63;1.47;;;23.50;95.90;;;;;;5109352;27;20633;-72
2021/08/07 11:25:17;;;;;;;2.60;1.13;;;23.50;96.30;;;;;;5070082;28;20525;-72
2021/08/07 11:38:23;;;;;;;2.67;1.53;;;23.20;95.20;;;;;;5056505;28;21042;-70
2021/08/07 11:48:43;;;;;;;2.83;1.47;;;21.40;99.90;;;;;;5070171;28;20566;-72
2021/08/07 11:51:10;;;;;;;1.30;1.00;;;21.30;99.90;;;;;;5069975;28;20390;-72
2021/08/07 11:53:39;;;;;;;3.70;1.20;;;20.90;99.90;;;;;;5070169;28;20382;-72
2021/08/07 12:01:34;;;;;;;2.50;1.30;;;20.50;99.90;;;;;;5069971;28;20954;-72
2021/08/07 12:04:00;;;;;;;2.60;1.40;;;20.40;99.90;;;;;;5059120;28;20513;-72
2021/08/07 12:06:32;;;;;;;2.17;1.30;;;20.40;99.90;;;;;;5049889;28;20430;-71
2021/08/07 12:08:59;;;;;;;2.33;1.60;;;20.50;99.90;;;;;;5050902;28;20165;-72
2021/08/07 12:11:26;;;;;;;1.57;1.20;;;20.60;99.90;;;;;;5051130;28;20965;-71
2021/08/07 12:13:55;;;;;;;1.20;1.10;;;20.80;99.90;;;;;;5050482;28;20457;-71
2021/08/07 12:16:26;;;;;;;1.50;1.17;;;20.90;99.90;;;;;;5049930;28;20395;-71
2021/08/07 12:21:33;;;;;;;1.10;1.00;;;21.10;99.90;;;;;;5069812;28;21052;-71
2021/08/07 12:26:43;;;;;;;1.17;1.07;;;21.50;99.90;;;;;;5070077;28;20520;-71
2021/08/07 12:29:12;;;;;;;1.60;1.23;;;21.50;99.90;;;;;;5058386;28;20411;-71
2021/08/07 12:31:40;;;;;;;2.73;1.30;;;21.40;99.90;;;;;;5050385;28;20783;-71
2021/08/07 12:34:12;;;;;;;1.83;1.50;;;21.20;99.90;;;;;;5050097;28;20750;-71
2021/08/07 12:36:37;;;;;;;2.00;1.20;;;21.10;99.90;;;;;;5049633;28;20768;-71
2021/08/07 12:39:03;;;;;;;2.47;1.23;;;21.00;99.90;;;;;;5051874;28;20495;-71
2021/08/07 12:41:28;;;;;;;1.73;1.20;;;21.00;99.90;;;;;;5049791;28;20165;-71
2021/08/07 12:43:54;;;;;;;1.27;1.17;;;21.00;99.90;;;;;;5050031;28;20282;-71
2021/08/07 12:46:20;;;;;;;2.00;1.00;;;21.00;99.90;;;;;;5050208;28;20248;-71
2021/08/07 12:51:33;;;;;;;1.47;0.80;;;21.00;99.90;;;;;;5131386;27;20520;-72
2021/08/07 12:54:01;;;;;;;0.90;0.80;;;20.80;99.90;;;;;;5132125;28;20870;-71
2021/08/07 12:56:30;;;;;;;1.43;0.90;;;20.80;99.90;;;;;;5130834;28;20430;-71
2021/08/07 12:59:05;;;;;;;4.40;1.53;;;20.70;99.90;;;;;;5131039;28;20436;-71
2021/08/07 13:01:33;;;;;;;1.50;1.30;;;20.60;99.90;;;;;;5130974;28;20435;-71
2021/08/07 13:04:02;;;;;;;2.90;1.83;;;20.60;99.90;;;;;;5129354;27;20435;-71
2021/08/07 13:06:30;;;;;;;1.63;1.17;;;20.60;99.90;;;;;;5111274;28;20381;-72
2021/08/07 13:09:16;;;;;;;1.30;0.97;;;20.60;99.90;;;;;;5111208;28;20388;-71
2021/08/07 13:12:17;;;;;;;1.23;0.93;;;20.60;99.90;;;;;;5109227;28;20426;-71
2021/08/07 13:14:45;;;;;;;1.20;1.03;;;20.50;99.90;;;;;;5109958;28;20384;-71
2021/08/07 13:17:31;;;;;;;1.53;0.97;;;20.50;99.90;;;;;;5110017;28;20400;-71
2021/08/07 13:19:57;;;;;;;1.00;0.80;;;20.50;99.90;;;;;;5110802;28;20811;-71
2021/08/07 13:22:24;;;;;;;0.80;0.80;;;20.60;99.90;;;;;;5111931;27;20523;-71
2021/08/07 13:24:53;;;;;;;1.60;0.90;;;20.60;99.90;;;;;;5110099;28;20271;-71
2021/08/07 13:27:19;;;;;;;1.63;1.07;;;20.60;99.90;;;;;;5110098;28;20877;-71
2021/08/07 13:29:58;;;;;;;2.50;1.10;;;20.60;99.90;;;;;;5109901;28;20500;-71
2021/08/07 13:32:26;;;;;;;1.43;0.73;;;20.60;99.90;;;;;;5109976;28;20900;-71
2021/08/07 13:34:52;;;;;;;2.20;0.87;;;20.60;99.90;;;;;;5110691;28;20781;-71
2021/08/07 13:37:18;;;;;;;1.80;1.00;;;20.60;99.90;;;;;;5110955;28;20415;-72
2021/08/07 13:39:45;;;;;;;1.30;1.10;;;20.60;99.90;;;;;;5110269;28;20407;-71
2021/08/07 13:42:12;;;;;;;1.83;1.43;;;20.70;99.90;;;;;;5109547;28;20437;-71
2021/08/07 13:44:39;;;;;;;1.93;1.07;;;20.70;99.90;;;;;;5109536;28;20392;-71
2021/08/07 13:47:05;;;;;;;1.47;1.07;;;20.70;99.90;;;;;;5109586;28;21012;-71
2021/08/07 13:49:32;;;;;;;1.57;1.10;;;20.70;99.90;;;;;;5110018;27;20460;-71